Time;durP1;ratioP1;P1;durP2;ratioP2;P2;SDS_P1;SDS_P2;PMS_P1;PMS_P2;Temp;Humidity;BMP_temperature;BMP_pressure;BME280_temperature;BME280_humidity;BME280_pressure;Samples;Min_cycle;Max_cycle;Signal;HPM_P1;HPM_P2
2022/06/29 00:00:50;;;;;;;4.75;2.45;;;;;;;16.11;100.00;95785.53;5007953;28;24452;-73
2022/06/29 00:03:16;;;;;;;4.90;2.17;;;;;;;16.12;100.00;95787.16;5010527;28;24460;-73
2022/06/29 00:05:43;;;;;;;4.50;2.50;;;;;;;16.15;100.00;95780.88;5008159;28;24455;-72
2022/06/29 00:08:09;;;;;;;3.88;2.45;;;;;;;16.16;100.00;95777.28;5004855;28;24432;-73
2022/06/29 00:10:38;;;;;;;11.15;2.25;;;;;;;16.13;100.00;95778.41;5008267;28;24464;-73
2022/06/29 00:13:05;;;;;;;5.60;2.50;;;;;;;16.13;100.00;95781.00;5010824;28;24479;-73
2022/06/29 00:15:32;;;;;;;5.88;2.33;;;;;;;16.02;100.00;95783.69;5008504;28;24440;-72
2022/06/29 00:17:58;;;;;;;3.33;2.08;;;;;;;15.84;100.00;95773.00;5010899;28;24535;-73
2022/06/29 00:20:25;;;;;;;2.85;2.08;;;;;;;15.90;100.00;95774.25;5003440;28;24432;-73
2022/06/29 00:22:51;;;;;;;3.10;2.10;;;;;;;15.97;100.00;95770.19;5010672;28;24503;-73
2022/06/29 00:25:18;;;;;;;5.00;2.22;;;;;;;16.05;100.00;95769.53;5008471;28;24463;-73
2022/06/29 00:27:45;;;;;;;3.03;2.15;;;;;;;16.09;100.00;95763.94;5005875;28;24791;-73
2022/06/29 00:30:13;;;;;;;3.72;2.17;;;;;;;16.09;100.00;95766.56;5008362;28;24985;-73
2022/06/29 00:32:40;;;;;;;2.67;1.85;;;;;;;16.10;100.00;95765.59;5005667;28;24436;-72
2022/06/29 00:35:07;;;;;;;2.30;1.95;;;;;;;16.06;100.00;95760.75;5008807;28;24443;-73
2022/06/29 00:37:34;;;;;;;2.35;1.92;;;;;;;16.04;100.00;95757.44;5005875;28;24433;-73
2022/06/29 00:40:02;;;;;;;4.53;2.15;;;;;;;15.99;100.00;95755.22;5005537;28;24483;-73
2022/06/29 00:42:28;;;;;;;4.65;2.25;;;;;;;15.92;100.00;95747.06;5006715;28;24456;-73
2022/06/29 00:44:56;;;;;;;2.93;1.90;;;;;;;15.90;100.00;95751.56;5007881;28;24472;-73
2022/06/29 00:47:23;;;;;;;3.60;1.77;;;;;;;15.93;100.00;95753.13;4994734;28;24436;-72
2022/06/29 00:49:49;;;;;;;2.55;2.10;;;;;;;15.84;100.00;95756.50;5006115;28;24531;-73
2022/06/29 00:52:17;;;;;;;3.00;2.03;;;;;;;15.80;100.00;95765.56;5008482;28;24440;-72
2022/06/29 00:54:45;;;;;;;2.20;1.65;;;;;;;15.77;100.00;95757.97;5006829;28;24439;-73
2022/06/29 00:57:15;;;;;;;3.30;1.90;;;;;;;15.79;100.00;95753.44;5008589;28;24457;-73
2022/06/29 00:59:44;;;;;;;1.90;1.60;;;;;;;15.75;100.00;95752.88;5007155;28;24443;-73
2022/06/29 01:02:13;;;;;;;3.27;1.93;;;;;;;15.73;100.00;95752.19;5008887;28;24532;-73
2022/06/29 01:04:41;;;;;;;3.10;1.83;;;;;;;15.75;100.00;95750.25;5000396;28;24432;-73
2022/06/29 01:07:07;;;;;;;2.47;1.70;;;;;;;15.71;100.00;95754.09;5008908;28;24989;-73
2022/06/29 01:09:34;;;;;;;2.50;1.60;;;;;;;15.59;100.00;95753.28;5005878;28;24535;-72
2022/06/29 01:12:03;;;;;;;3.03;1.67;;;;;;;15.54;100.00;95758.09;5009287;28;21318;-73
2022/06/29 01:14:29;;;;;;;2.22;1.58;;;;;;;15.54;100.00;95747.63;5005427;28;24439;-73
2022/06/29 01:16:56;;;;;;;4.88;2.22;;;;;;;15.53;100.00;95743.34;5010153;28;24842;-72
2022/06/29 01:19:24;;;;;;;3.08;1.75;;;;;;;15.58;100.00;95741.22;4998102;28;24524;-73
2022/06/29 01:21:52;;;;;;;2.65;1.90;;;;;;;15.65;100.00;95742.38;5009028;28;24515;-73
2022/06/29 01:24:21;;;;;;;2.67;1.80;;;;;;;15.48;100.00;95746.34;5004792;28;24453;-73
2022/06/29 01:26:48;;;;;;;2.40;1.70;;;;;;;15.36;100.00;95746.53;5009680;28;24487;-73
2022/06/29 01:29:15;;;;;;;3.20;1.70;;;;;;;15.31;100.00;95743.47;5004993;28;25194;-73
2022/06/29 01:31:41;;;;;;;4.80;1.95;;;;;;;15.33;100.00;95749.41;5010234;28;24429;-72
2022/06/29 01:34:08;;;;;;;6.10;1.92;;;;;;;15.31;100.00;95752.13;5003975;28;24420;-72
2022/06/29 01:36:35;;;;;;;3.28;2.15;;;;;;;15.26;100.00;95743.84;5009875;28;24440;-73
2022/06/29 01:39:01;;;;;;;2.83;2.00;;;;;;;15.20;100.00;95739.97;5005488;28;24989;-73
2022/06/29 01:41:29;;;;;;;3.13;1.85;;;;;;;15.17;100.00;95742.84;5008946;28;24439;-73
2022/06/29 01:43:55;;;;;;;3.57;2.60;;;;;;;15.11;100.00;95739.88;5005917;28;24456;-73
2022/06/29 01:46:22;;;;;;;3.85;2.35;;;;;;;15.04;100.00;95743.94;5008373;28;24435;-72
2022/06/29 01:48:48;;;;;;;4.18;2.20;;;;;;;14.96;100.00;95749.78;5006125;28;24428;-72
2022/06/29 01:51:15;;;;;;;5.85;2.08;;;;;;;14.85;100.00;95747.22;5009765;28;24464;-73
2022/06/29 01:53:41;;;;;;;3.80;2.37;;;;;;;14.87;100.00;95745.28;5006328;28;24436;-73
2022/06/29 01:56:07;;;;;;;6.53;2.85;;;;;;;14.93;100.00;95745.63;5008576;28;24436;-73
2022/06/29 01:58:35;;;;;;;3.40;2.60;;;;;;;14.99;100.00;95744.31;5006635;28;24444;-73
2022/06/29 02:01:02;;;;;;;5.03;2.95;;;;;;;15.03;100.00;95739.69;5009389;28;24436;-73
2022/06/29 02:03:28;;;;;;;4.20;2.70;;;;;;;15.04;100.00;95741.34;5007012;28;24452;-72
2022/06/29 02:05:54;;;;;;;7.57;2.67;;;;;;;15.04;100.00;95738.72;5004524;28;24433;-73
2022/06/29 02:08:21;;;;;;;4.63;2.88;;;;;;;15.08;100.00;95745.34;5006917;28;24459;-73
2022/06/29 02:10:47;;;;;;;4.80;2.90;;;;;;;15.09;100.00;95731.34;5026262;23;24456;-76
2022/06/29 02:13:14;;;;;;;4.78;2.75;;;;;;;15.11;100.00;95730.28;5000353;28;24432;-76
2022/06/29 02:15:42;;;;;;;5.90;2.83;;;;;;;15.12;100.00;95738.94;5003420;28;24819;-76
2022/06/29 02:18:08;;;;;;;3.63;2.38;;;;;;;15.14;100.00;95731.81;4999336;28;24440;-77
2022/06/29 02:20:34;;;;;;;3.20;2.28;;;;;;;15.17;100.00;95728.97;5004030;28;24455;-76
2022/06/29 02:23:01;;;;;;;2.20;1.90;;;;;;;15.24;100.00;95736.16;4998240;28;24459;-77
2022/06/29 02:25:27;;;;;;;9.77;2.07;;;;;;;15.30;100.00;95734.81;5004824;28;25152;-77
2022/06/29 02:27:54;;;;;;;2.90;2.10;;;;;;;15.37;100.00;95735.16;4991629;28;24962;-76
2022/06/29 02:34:43;;;;;;;8.30;2.30;;;;;;;15.40;100.00;95725.28;5005250;28;24986;-76
2022/06/29 02:35:52;;;;;;;4.10;2.15;;;;;;;15.32;100.00;95724.28;5001076;28;24587;-76
2022/06/29 02:38:18;;;;;;;4.25;2.20;;;;;;;15.30;100.00;95729.59;4997924;28;24433;-76
2022/06/29 02:40:45;;;;;;;2.92;2.03;;;;;;;15.31;100.00;95730.44;4993748;28;24440;-77
2022/06/29 02:43:11;;;;;;;3.27;2.27;;;;;;;15.33;100.00;95737.19;4999500;28;24595;-77
2022/06/29 02:45:38;;;;;;;5.75;2.20;;;;;;;15.33;100.00;95731.13;5005176;28;24480;-77
2022/06/29 02:48:04;;;;;;;2.58;2.38;;;;;;;15.33;100.00;95712.88;4997028;28;24426;-77
2022/06/29 02:50:32;;;;;;;1.90;1.75;;;;;;;15.32;100.00;95712.06;4991423;28;24520;-76
2022/06/29 02:52:58;;;;;;;2.88;2.30;;;;;;;15.31;100.00;95704.34;5001550;28;24479;-77
2022/06/29 02:55:25;;;;;;;2.53;2.10;;;;;;;15.34;100.00;95707.50;4995134;28;25108;-77
2022/06/29 02:57:52;;;;;;;9.82;2.58;;;;;;;15.30;100.00;95710.50;5000894;28;24429;-77
2022/06/29 03:00:19;;;;;;;4.45;2.30;;;;;;;15.29;100.00;95712.28;5007406;28;24479;-77
2022/06/29 03:02:45;;;;;;;3.58;2.00;;;;;;;15.26;100.00;95707.31;4993540;28;24540;-76
2022/06/29 03:05:12;;;;;;;3.25;2.20;;;;;;;15.25;100.00;95714.31;5007022;28;24834;-77
2022/06/29 03:07:40;;;;;;;3.17;2.08;;;;;;;15.20;100.00;95710.44;5001046;28;24487;-76
2022/06/29 03:10:07;;;;;;;8.77;2.38;;;;;;;15.11;100.00;95711.19;5006394;28;24436;-77
2022/06/29 03:12:34;;;;;;;2.30;2.07;;;;;;;15.07;100.00;95708.00;5005591;28;24428;-76
2022/06/29 03:15:01;;;;;;;4.07;1.77;;;;;;;14.96;100.00;95698.44;5003952;28;24527;-77
2022/06/29 03:17:27;;;;;;;4.20;2.20;;;;;;;14.80;100.00;95700.66;4992355;28;24436;-76
2022/06/29 03:19:53;;;;;;;2.50;1.83;;;;;;;14.75;100.00;95694.97;5005332;28;24436;-76
2022/06/29 03:22:20;;;;;;;2.00;1.80;;;;;;;14.74;100.00;95699.34;4992852;28;24791;-76
2022/06/29 03:24:48;;;;;;;2.53;1.50;;;;;;;14.77;100.00;95712.16;5003366;28;25016;-77
2022/06/29 03:27:14;;;;;;;2.90;2.00;;;;;;;14.69;100.00;95709.34;5002203;28;25004;-77
2022/06/29 03:29:41;;;;;;;2.75;2.20;;;;;;;14.72;100.00;95697.81;5003278;28;25032;-76
2022/06/29 03:32:09;;;;;;;3.50;2.03;;;;;;;14.74;100.00;95693.31;5003184;28;24433;-76
2022/06/29 03:34:35;;;;;;;2.28;1.83;;;;;;;14.77;100.00;95699.13;5004282;28;24435;-76
2022/06/29 03:37:02;;;;;;;2.95;2.00;;;;;;;14.79;100.00;95704.19;5002886;28;24443;-76
2022/06/29 03:39:28;;;;;;;3.60;2.15;;;;;;;14.77;100.00;95706.13;5003946;28;24435;-76
2022/06/29 03:41:56;;;;;;;4.30;2.03;;;;;;;14.72;100.00;95705.63;5003402;28;24435;-76
2022/06/29 03:44:22;;;;;;;2.00;1.80;;;;;;;14.59;100.00;95705.81;5003442;28;24818;-77
2022/06/29 03:46:49;;;;;;;3.03;2.08;;;;;;;14.58;100.00;95711.16;5003017;28;24981;-76
2022/06/29 03:49:15;;;;;;;4.47;2.20;;;;;;;14.54;100.00;95707.13;5002914;28;25025;-77
2022/06/29 03:51:42;;;;;;;2.10;1.90;;;;;;;14.57;100.00;95704.25;5003678;28;24985;-76
2022/06/29 03:54:08;;;;;;;7.88;2.90;;;;;;;14.57;100.00;95699.88;5000349;28;24483;-76
2022/06/29 03:56:35;;;;;;;6.22;2.80;;;;;;;14.45;100.00;95693.81;4996658;28;24437;-76
2022/06/29 03:59:03;;;;;;;2.92;2.63;;;;;;;14.43;100.00;95695.75;5001515;28;24437;-76
2022/06/29 04:01:29;;;;;;;4.18;3.00;;;;;;;14.45;100.00;95700.81;5003593;28;24437;-77
2022/06/29 04:03:56;;;;;;;5.25;2.85;;;;;;;14.49;100.00;95686.59;5001993;28;24474;-77
2022/06/29 04:06:23;;;;;;;5.38;2.40;;;;;;;14.39;100.00;95686.53;4995373;28;24511;-76
2022/06/29 04:08:49;;;;;;;11.65;2.75;;;;;;;14.29;100.00;95690.78;5002320;28;24437;-76
2022/06/29 04:13:59;;;;;;;3.45;2.92;;;;;;;14.39;100.00;95691.72;5006378;28;24444;-76
2022/06/29 04:16:27;;;;;;;4.40;3.00;;;;;;;14.45;100.00;95691.22;4999143;28;24444;-77
2022/06/29 04:18:53;;;;;;;4.07;2.63;;;;;;;14.54;100.00;95696.72;5009362;28;24433;-78
2022/06/29 04:21:20;;;;;;;3.53;2.63;;;;;;;14.61;100.00;95685.66;4999459;28;25127;-78
2022/06/29 04:23:46;;;;;;;4.57;2.85;;;;;;;14.74;100.00;95685.50;5003158;28;25011;-77
2022/06/29 04:26:13;;;;;;;7.05;2.92;;;;;;;14.83;100.00;95691.72;5002438;28;24424;-77
2022/06/29 04:28:39;;;;;;;2.87;2.60;;;;;;;14.92;100.00;95693.63;4999660;28;24487;-77
2022/06/29 04:31:05;;;;;;;2.95;2.47;;;;;;;14.98;100.00;95685.28;5004098;28;24485;-77
2022/06/29 04:33:33;;;;;;;4.30;2.67;;;;;;;15.08;100.00;95688.78;5004789;28;24436;-76
2022/06/29 04:36:00;;;;;;;2.63;2.42;;;;;;;15.14;100.00;95698.72;5003963;28;24572;-77
2022/06/29 04:38:26;;;;;;;3.10;2.15;;;;;;;15.16;100.00;95699.41;5002177;28;24440;-77
2022/06/29 04:40:53;;;;;;;4.07;2.28;;;;;;;15.01;100.00;95695.47;5004296;28;24440;-78
2022/06/29 04:43:19;;;;;;;3.85;2.80;;;;;;;14.87;100.00;95696.59;5002080;28;24448;-76
2022/06/29 04:48:30;;;;;;;5.10;2.70;;;;;;;15.03;100.00;95696.19;4988799;28;24424;-76
2022/06/29 04:50:57;;;;;;;3.75;2.55;;;;;;;15.09;100.00;95695.69;5004269;28;24440;-76
2022/06/29 04:53:24;;;;;;;11.50;2.60;;;;;;;15.21;100.00;95697.28;4996357;28;24490;-77
2022/06/29 04:55:50;;;;;;;2.60;2.38;;;;;;;15.40;100.00;95700.97;5004756;28;24437;-77
2022/06/29 04:58:17;;;;;;;3.38;2.63;;;;;;;15.44;100.00;95711.03;5001202;28;24421;-78
2022/06/29 05:00:43;;;;;;;5.50;3.20;;;;;;;15.45;100.00;95710.06;4993056;28;24437;-76
2022/06/29 05:03:10;;;;;;;4.35;2.70;;;;;;;15.47;100.00;95709.94;4998668;28;24433;-77
2022/06/29 05:05:36;;;;;;;4.25;2.65;;;;;;;15.57;100.00;95707.38;5004089;28;24445;-75
2022/06/29 05:08:05;;;;;;;4.45;2.70;;;;;;;15.66;100.00;95710.09;4996147;28;24440;-78
2022/06/29 05:10:31;;;;;;;3.97;2.77;;;;;;;15.66;100.00;95712.69;4997842;28;24449;-77
2022/06/29 05:12:58;;;;;;;3.50;2.90;;;;;;;15.58;100.00;95709.88;5000147;28;24629;-76
2022/06/29 05:15:24;;;;;;;5.13;3.03;;;;;;;15.65;100.00;95708.44;4997920;28;24440;-76
2022/06/29 05:17:51;;;;;;;3.92;2.70;;;;;;;15.76;100.00;95704.09;4996950;28;24471;-77
2022/06/29 05:20:20;;;;;;;4.50;3.00;;;;;;;15.73;100.00;95699.97;5001723;28;24432;-76
2022/06/29 05:22:47;;;;;;;4.80;2.90;;;;;;;15.75;100.00;95694.59;4998467;28;24465;-76
2022/06/29 05:25:14;;;;;;;5.93;3.58;;;;;;;15.77;100.00;95701.34;5002407;28;24456;-76
2022/06/29 05:27:41;;;;;;;6.47;3.40;;;;;;;15.96;100.00;95701.44;4996846;28;24445;-77
2022/06/29 05:30:08;;;;;;;4.30;2.95;;;;;;;15.90;100.00;95701.97;5003088;28;24514;-77
2022/06/29 05:32:35;;;;;;;6.43;3.30;;;;;;;16.02;100.00;95707.09;4992848;28;24495;-76
2022/06/29 05:35:02;;;;;;;4.00;2.97;;;;;;;16.24;100.00;95701.69;4996332;28;24997;-77
2022/06/29 05:37:28;;;;;;;4.07;3.22;;;;;;;16.24;100.00;95695.63;5002813;28;24473;-76
2022/06/29 05:39:55;;;;;;;5.93;3.33;;;;;;;16.20;100.00;95700.28;4990961;28;24445;-76
2022/06/29 05:42:22;;;;;;;8.30;3.58;;;;;;;16.34;100.00;95699.09;5001257;28;24483;-76
2022/06/29 05:44:49;;;;;;;19.25;5.32;;;;;;;16.74;100.00;95695.66;5002451;28;24460;-76
2022/06/29 05:47:15;;;;;;;3.22;2.92;;;;;;;17.01;100.00;95692.34;4997732;28;24495;-77
2022/06/29 05:49:42;;;;;;;5.73;3.50;;;;;;;17.20;100.00;95684.50;4993146;28;24437;-76
2022/06/29 05:52:09;;;;;;;4.78;2.78;;;;;;;17.36;100.00;95681.31;5001011;28;24441;-78
2022/06/29 05:54:35;;;;;;;4.78;3.10;;;;;;;17.58;100.00;95685.41;4992345;28;24464;-76
2022/06/29 05:57:02;;;;;;;3.83;2.90;;;;;;;17.76;100.00;95690.75;5001733;28;24504;-76
2022/06/29 05:59:29;;;;;;;3.78;3.28;;;;;;;18.03;100.00;95690.81;4998354;28;24551;-76
2022/06/29 06:01:56;;;;;;;4.40;3.42;;;;;;;18.25;100.00;95689.63;4995123;28;24503;-74
2022/06/29 06:04:22;;;;;;;4.28;3.38;;;;;;;18.47;100.00;95693.66;4993243;28;24506;-72
2022/06/29 06:06:49;;;;;;;4.40;3.55;;;;;;;18.61;100.00;95695.78;4989240;28;24448;-72
2022/06/29 06:09:15;;;;;;;6.03;3.38;;;;;;;18.70;100.00;95688.00;4982763;28;24810;-71
2022/06/29 06:11:42;;;;;;;4.53;3.35;;;;;;;18.78;100.00;95683.69;4989632;28;24503;-72
2022/06/29 06:14:09;;;;;;;4.20;3.70;;;;;;;18.91;100.00;95683.31;4991690;28;24477;-73
2022/06/29 06:16:36;;;;;;;5.00;3.30;;;;;;;18.92;100.00;95682.34;4998421;28;24632;-72
2022/06/29 06:19:03;;;;;;;4.80;2.90;;;;;;;19.00;100.00;95685.03;4989666;28;24459;-70
2022/06/29 06:21:29;;;;;;;3.90;3.33;;;;;;;19.19;100.00;95688.47;5002166;28;24506;-77
2022/06/29 06:23:56;;;;;;;8.02;3.88;;;;;;;19.30;100.00;95685.63;5006924;28;24483;-76
2022/06/29 06:26:22;;;;;;;6.68;3.60;;;;;;;19.38;100.00;95687.47;5009401;28;24440;-76
2022/06/29 06:28:50;;;;;;;5.15;3.45;;;;;;;19.58;100.00;95689.78;5009976;28;24433;-76
2022/06/29 06:31:16;;;;;;;8.48;3.00;;;;;;;19.77;100.00;95688.78;5003403;28;24515;-76
2022/06/29 06:33:44;;;;;;;4.10;3.10;;;;;;;19.94;100.00;95692.31;4999847;28;24444;-77
2022/06/29 06:36:11;;;;;;;4.93;3.53;;;;;;;20.02;100.00;95692.38;5014239;28;24440;-76
2022/06/29 06:38:37;;;;;;;3.80;2.80;;;;;;;20.18;100.00;95696.06;5011332;28;24432;-76
2022/06/29 06:43:47;;;;;;;2.97;2.67;;;;;;;20.41;100.00;95699.78;5008527;28;24431;-77
2022/06/29 06:46:14;;;;;;;4.57;2.88;;;;;;;20.21;100.00;95706.25;5003414;28;24440;-76
2022/06/29 06:48:42;;;;;;;8.45;2.67;;;;;;;20.52;100.00;95696.06;4993062;28;24439;-75
2022/06/29 06:51:11;;;;;;;3.97;2.63;;;;;;;20.75;100.00;95696.28;5000800;28;24441;-76
2022/06/29 06:53:37;;;;;;;3.53;2.92;;;;;;;21.05;100.00;95697.50;4999805;28;24460;-77
2022/06/29 06:56:05;;;;;;;4.80;2.63;;;;;;;21.25;100.00;95701.50;5003830;28;24440;-77
2022/06/29 06:58:31;;;;;;;4.20;2.88;;;;;;;21.46;100.00;95708.91;5010674;28;24440;-76
2022/06/29 07:00:58;;;;;;;4.28;2.85;;;;;;;21.67;100.00;95697.06;5003194;28;24448;-77
2022/06/29 07:03:24;;;;;;;3.33;2.58;;;;;;;21.85;98.09;95684.50;5004164;28;24448;-77
2022/06/29 07:05:50;;;;;;;4.10;2.72;;;;;;;21.83;97.69;95683.84;5000798;28;24457;-76
2022/06/29 07:08:18;;;;;;;6.63;3.72;;;;;;;21.60;100.00;95681.06;5001195;28;24467;-75
2022/06/29 07:10:45;;;;;;;5.05;3.00;;;;;;;21.60;98.14;95688.16;4994558;28;24513;-77
2022/06/29 07:13:11;;;;;;;4.63;2.83;;;;;;;21.73;99.60;95684.03;5005366;28;24445;-76
2022/06/29 07:15:37;;;;;;;2.97;2.67;;;;;;;21.72;97.90;95686.81;4999754;28;24822;-76
2022/06/29 07:18:04;;;;;;;4.57;2.90;;;;;;;21.80;97.19;95683.34;5000693;28;24436;-77
2022/06/29 07:20:31;;;;;;;3.80;2.65;;;;;;;21.72;94.98;95690.28;5001431;28;24529;-76
2022/06/29 07:22:57;;;;;;;4.30;2.90;;;;;;;21.82;98.18;95692.75;4993819;28;24526;-76
2022/06/29 07:25:25;;;;;;;6.90;3.35;;;;;;;21.67;97.13;95697.06;4998589;28;24461;-77
2022/06/29 07:27:51;;;;;;;4.63;3.20;;;;;;;21.82;95.41;95692.75;5003049;28;24448;-75
2022/06/29 07:30:18;;;;;;;4.25;3.00;;;;;;;21.75;91.16;95697.03;5008756;28;24448;-76
2022/06/29 07:32:44;;;;;;;2.88;2.58;;;;;;;21.67;94.03;95694.41;4997283;28;24433;-76
2022/06/29 07:35:11;;;;;;;3.75;2.30;;;;;;;21.30;94.04;95694.91;4999616;28;24495;-76
2022/06/29 07:37:37;;;;;;;3.95;2.90;;;;;;;21.10;96.12;95695.22;5001463;28;24487;-76
2022/06/29 07:40:05;;;;;;;3.33;2.33;;;;;;;21.21;93.62;95691.41;4998432;28;24471;-74
2022/06/29 07:42:35;;;;;;;6.85;3.00;;;;;;;21.14;95.42;95693.09;4996817;28;25002;-76
2022/06/29 07:45:02;;;;;;;2.97;2.60;;;;;;;20.99;95.65;95699.00;5004246;28;24452;-77
2022/06/29 07:47:28;;;;;;;3.35;2.50;;;;;;;21.02;97.05;95703.09;4991076;28;24548;-75
2022/06/29 07:49:55;;;;;;;3.85;2.70;;;;;;;21.02;96.57;95703.94;4997146;28;24437;-76
2022/06/29 07:52:21;;;;;;;3.97;2.85;;;;;;;20.99;96.78;95700.81;5000649;28;24441;-77
2022/06/29 07:54:48;;;;;;;3.20;2.60;;;;;;;21.17;97.32;95701.50;4999285;28;24436;-76
2022/06/29 07:57:14;;;;;;;3.95;2.92;;;;;;;21.26;97.70;95703.13;5001190;28;24440;-76
2022/06/29 07:59:42;;;;;;;3.15;2.80;;;;;;;21.71;95.77;95707.09;4998831;28;24811;-75
2022/06/29 08:02:08;;;;;;;3.85;3.20;;;;;;;21.86;96.77;95699.31;4996778;28;24436;-76
2022/06/29 08:04:35;;;;;;;7.15;3.63;;;;;;;21.93;92.52;95700.31;4995423;28;24802;-76
2022/06/29 08:07:01;;;;;;;3.80;2.88;;;;;;;21.93;93.53;95695.03;4992475;28;24483;-76
2022/06/29 08:09:28;;;;;;;8.10;2.92;;;;;;;21.94;95.19;95694.03;5000031;28;24436;-76
2022/06/29 08:11:54;;;;;;;4.13;2.97;;;;;;;21.89;93.89;95699.00;5048754;23;24468;-77
2022/06/29 08:14:20;;;;;;;4.60;3.03;;;;;;;22.19;97.01;95701.91;5011823;28;24802;-75
2022/06/29 08:16:48;;;;;;;4.50;2.92;;;;;;;22.83;98.52;95694.69;5012572;28;24441;-75
2022/06/29 08:19:15;;;;;;;4.20;3.15;;;;;;;23.43;92.22;95699.28;5020017;28;24444;-76
2022/06/29 08:21:41;;;;;;;4.63;3.25;;;;;;;23.73;83.74;95690.63;5012248;28;24444;-75
2022/06/29 08:24:08;;;;;;;3.25;2.95;;;;;;;23.85;82.62;95687.38;5011508;28;24439;-75
2022/06/29 08:26:34;;;;;;;4.57;3.30;;;;;;;23.75;81.90;95697.38;5011614;28;24452;-76
2022/06/29 08:29:01;;;;;;;4.70;2.78;;;;;;;23.73;85.01;95699.41;5004414;28;24441;-74
2022/06/29 08:31:27;;;;;;;3.33;2.97;;;;;;;23.91;82.74;95696.38;4997217;28;24441;-73
2022/06/29 08:33:55;;;;;;;5.32;2.90;;;;;;;23.50;82.14;95693.28;5001740;28;24451;-74
2022/06/29 08:36:22;;;;;;;3.85;2.60;;;;;;;23.19;84.25;95689.72;5005557;28;24435;-75
2022/06/29 08:38:48;;;;;;;4.07;2.80;;;;;;;22.97;87.50;95698.44;5007993;28;25029;-75
2022/06/29 08:41:16;;;;;;;3.10;2.20;;;;;;;23.03;87.45;95702.22;5014380;28;24452;-74
2022/06/29 08:43:43;;;;;;;3.72;2.50;;;;;;;22.56;87.06;95692.53;5011113;28;24440;-74
2022/06/29 08:46:12;;;;;;;6.38;2.60;;;;;;;22.96;88.52;95688.06;5007626;28;24981;-74
2022/06/29 08:48:39;;;;;;;4.63;2.75;;;;;;;23.03;85.05;95689.84;5003960;28;24439;-76
2022/06/29 08:51:07;;;;;;;4.03;2.50;;;;;;;22.77;85.48;95692.78;5010000;28;24448;-75
2022/06/29 08:53:34;;;;;;;2.95;2.45;;;;;;;22.71;85.37;95704.00;5012903;28;25041;-75
2022/06/29 08:56:02;;;;;;;3.45;2.83;;;;;;;23.03;86.41;95707.50;5013771;28;24467;-74
2022/06/29 08:58:28;;;;;;;4.70;3.20;;;;;;;23.01;84.13;95697.09;5011904;28;24920;-73
2022/06/29 09:00:55;;;;;;;3.83;2.75;;;;;;;22.99;82.37;95693.84;5009753;28;24436;-75
2022/06/29 09:03:23;;;;;;;4.95;2.70;;;;;;;23.34;82.81;95696.88;5008215;28;24440;-75
2022/06/29 09:05:51;;;;;;;3.17;2.70;;;;;;;23.48;82.54;95697.94;5012373;28;24452;-74
2022/06/29 09:08:19;;;;;;;3.17;2.88;;;;;;;23.70;82.71;95704.22;5008156;28;24483;-74
2022/06/29 09:10:46;;;;;;;2.57;2.37;;;;;;;23.56;81.03;95687.28;5008157;28;24993;-74
2022/06/29 09:13:20;;;;;;;4.43;2.53;;;;;;;24.05;78.56;95694.78;5009071;28;24522;-74
2022/06/29 09:15:47;;;;;;;4.85;2.67;;;;;;;24.47;79.57;95695.97;5008757;28;25044;-74
2022/06/29 09:18:25;;;;;;;4.60;2.97;;;;;;;23.66;77.10;95691.34;5009704;28;24439;-73
2022/06/29 09:20:54;;;;;;;4.13;2.70;;;;;;;23.79;80.48;95690.72;5005622;28;24491;-75
2022/06/29 09:23:22;;;;;;;4.40;2.72;;;;;;;23.38;79.10;95684.94;5009867;28;24535;-75
2022/06/29 09:25:49;;;;;;;4.20;2.85;;;;;;;23.02;81.46;95690.81;5009162;28;24869;-73
2022/06/29 09:28:20;;;;;;;3.67;3.00;;;;;;;22.95;83.42;95689.88;5011174;28;25148;-75
2022/06/29 09:30:47;;;;;;;3.00;2.70;;;;;;;23.41;86.43;95698.63;5004269;28;24456;-75
2022/06/29 09:33:14;;;;;;;5.35;3.17;;;;;;;23.18;79.87;95696.00;5007455;28;24443;-76
2022/06/29 09:35:41;;;;;;;5.60;2.83;;;;;;;23.22;81.43;95698.31;5008135;28;24487;-76
2022/06/29 09:38:26;;;;;;;3.90;2.70;;;;;;;23.12;83.08;95691.41;5004038;28;24528;-76
2022/06/29 09:41:03;;;;;;;6.22;2.80;;;;;;;22.78;81.20;95699.69;5007536;28;24447;-76
2022/06/29 09:43:30;;;;;;;3.38;2.63;;;;;;;23.12;83.54;95699.34;5002280;28;24455;-76
2022/06/29 09:45:57;;;;;;;3.92;3.10;;;;;;;23.56;82.54;95703.16;5004368;28;24452;-76
2022/06/29 09:48:25;;;;;;;4.33;3.03;;;;;;;23.46;80.57;95699.91;5009494;28;24989;-77
2022/06/29 09:50:52;;;;;;;4.10;2.80;;;;;;;23.23;81.53;95695.47;5003131;28;24445;-75
2022/06/29 09:53:24;;;;;;;2.80;2.42;;;;;;;23.25;86.37;95690.84;5006168;28;24499;-77
2022/06/29 09:55:54;;;;;;;3.00;2.42;;;;;;;23.04;82.25;95691.47;5008344;28;24445;-76
2022/06/29 09:58:36;;;;;;;6.75;2.78;;;;;;;22.99;83.70;95690.34;5006123;28;24526;-76
2022/06/29 10:03:50;;;;;;;2.97;2.60;;;;;;;22.78;83.08;95697.06;5005944;28;24848;-77
2022/06/29 10:06:18;;;;;;;4.72;2.72;;;;;;;22.58;82.93;95694.03;5008715;28;24480;-76
2022/06/29 10:08:46;;;;;;;3.90;2.70;;;;;;;22.51;84.52;95694.84;5006489;28;24436;-74
2022/06/29 10:14:19;;;;;;;3.60;2.87;;;;;;;23.14;88.15;95691.25;5005798;28;24575;-75
2022/06/29 10:16:53;;;;;;;4.18;2.67;;;;;;;22.44;86.96;95702.66;5002637;28;25008;-76
2022/06/29 10:19:34;;;;;;;4.07;3.47;;;;;;;22.16;89.67;95702.25;5007275;28;24539;-76
2022/06/29 10:22:01;;;;;;;3.20;2.55;;;;;;;22.13;89.75;95703.38;5006037;28;24491;-76
2022/06/29 10:24:28;;;;;;;5.50;2.70;;;;;;;21.95;90.90;95700.13;5006523;28;24536;-76
2022/06/29 10:26:56;;;;;;;4.78;2.63;;;;;;;21.90;92.17;95703.28;5002836;28;24543;-76
2022/06/29 10:29:33;;;;;;;5.75;3.00;;;;;;;21.86;90.28;95707.25;4991716;28;24433;-76
2022/06/29 10:32:06;;;;;;;3.25;2.50;;;;;;;21.96;89.99;95704.44;5006342;28;24447;-76
2022/06/29 10:35:04;;;;;;;4.10;2.65;;;;;;;21.76;93.13;95703.94;5003044;28;24842;-76
2022/06/29 10:37:28;;;;;;;3.83;2.40;;;;;;;21.76;92.89;95698.69;5007562;28;24519;-76
2022/06/29 10:39:58;;;;;;;4.28;2.88;;;;;;;21.79;93.64;95697.53;5009238;28;24541;-73
2022/06/29 10:45:39;;;;;;;5.20;2.80;;;;;;;21.89;93.52;95693.72;5005201;28;24657;-77
2022/06/29 10:48:16;;;;;;;3.35;2.72;;;;;;;21.94;93.55;95694.03;5006739;28;24494;-76
2022/06/29 10:50:45;;;;;;;3.30;2.40;;;;;;;21.94;94.50;95694.03;4999606;28;24451;-76
2022/06/29 10:53:12;;;;;;;4.25;2.55;;;;;;;22.10;93.35;95692.34;5008379;28;24810;-75
2022/06/29 10:55:41;;;;;;;2.88;2.28;;;;;;;22.10;93.97;95687.06;5009582;28;24439;-76
2022/06/29 10:58:10;;;;;;;2.92;2.53;;;;;;;21.96;92.32;95696.50;5002395;28;24445;-76
2022/06/29 11:00:39;;;;;;;4.18;2.53;;;;;;;22.23;92.13;95701.41;5009938;28;24502;-76
2022/06/29 11:03:11;;;;;;;3.40;2.25;;;;;;;22.32;93.06;95696.94;5011788;28;24550;-75
2022/06/29 11:12:01;;;;;;;3.90;2.40;;;;;;;22.35;89.70;95699.22;5014235;28;24456;-76
2022/06/29 11:13:57;;;;;;;5.15;2.50;;;;;;;22.89;92.39;95694.00;5010211;28;24491;-74
2022/06/29 11:16:32;;;;;;;7.28;2.70;;;;;;;22.65;87.73;95699.41;5008784;28;24507;-76
2022/06/29 11:18:58;;;;;;;7.53;3.00;;;;;;;22.55;88.39;95697.00;5003858;28;24440;-74
2022/06/29 11:21:28;;;;;;;5.70;2.80;;;;;;;22.58;87.66;95696.66;5001673;28;24444;-75
2022/06/29 11:24:02;;;;;;;2.83;2.28;;;;;;;22.75;86.46;95689.47;5009448;28;24494;-75
2022/06/29 11:26:29;;;;;;;2.72;2.42;;;;;;;22.77;85.64;95687.50;5007973;28;24463;-75
2022/06/29 11:28:58;;;;;;;3.10;2.60;;;;;;;22.77;85.67;95695.41;5011324;28;24806;-76
2022/06/29 11:31:25;;;;;;;4.50;2.83;;;;;;;22.86;85.89;95690.91;5011902;28;24499;-75
2022/06/29 11:33:53;;;;;;;3.38;2.80;;;;;;;22.82;84.38;95687.78;5005328;28;25008;-76
2022/06/29 11:36:22;;;;;;;2.83;2.40;;;;;;;22.99;85.32;95691.19;5009684;28;24982;-75
2022/06/29 11:38:50;;;;;;;3.13;2.65;;;;;;;22.90;83.97;95686.91;5003328;28;24483;-76
2022/06/29 11:41:19;;;;;;;3.60;2.80;;;;;;;22.81;84.09;95683.50;5006333;28;24455;-75
2022/06/29 11:43:46;;;;;;;4.27;2.60;;;;;;;22.87;85.88;95666.94;5011543;28;24443;-75
2022/06/29 11:46:21;;;;;;;4.13;2.88;;;;;;;23.05;84.42;95673.81;5013546;28;24543;-74
2022/06/29 11:51:35;;;;;;;2.70;2.50;;;;;;;23.09;83.35;95672.44;5014587;28;24483;-75
2022/06/29 11:54:06;;;;;;;3.10;2.57;;;;;;;23.44;83.23;95671.03;5004663;28;24436;-76
2022/06/29 11:56:33;;;;;;;4.05;2.85;;;;;;;23.44;82.79;95673.69;5007704;28;24487;-77
2022/06/29 11:59:05;;;;;;;4.30;2.77;;;;;;;23.42;80.80;95675.66;5013638;28;24472;-76